createdAt,value
2019-04-01T00:01:30.234Z,74.36
2019-04-01T00:04:43.939Z,75.09
2019-04-01T00:07:57.398Z,75.26
2019-04-01T00:11:10.966Z,75.32
2019-04-01T00:14:24.777Z,75.31
2019-04-01T00:17:38.251Z,74.98
2019-04-01T00:20:51.728Z,74.90
2019-04-01T00:24:05.288Z,75.60
2019-04-01T00:27:18.767Z,75.41
2019-04-01T00:30:32.752Z,75.74
2019-04-01T00:33:46.218Z,75.98
2019-04-01T00:36:59.701Z,75.84
2019-04-01T00:40:13.274Z,76.22
2019-04-01T00:43:46.700Z,75.76
2019-04-01T00:47:00.398Z,76.64
2019-04-01T00:50:13.888Z,77.13
2019-04-01T00:53:27.344Z,77.21
2019-04-01T00:56:41.202Z,77.04
2019-04-01T00:59:54.958Z,77.42
2019-04-01T01:03:08.685Z,77.48
2019-04-01T01:06:22.275Z,77.54
2019-04-01T01:09:36.047Z,77.03
2019-04-01T01:12:49.887Z,76.72
2019-04-01T01:16:03.348Z,77.72
2019-04-01T01:19:17.247Z,77.67
2019-04-01T01:22:31.115Z,77.48
2019-04-01T01:25:44.699Z,78.17
2019-04-01T01:28:58.180Z,78.03
2019-04-01T01:32:11.780Z,78.56
2019-04-01T01:35:25.269Z,79.65
2019-04-01T01:38:39.016Z,80.26
2019-04-01T01:41:52.499Z,79.42
2019-04-01T01:45:06.192Z,78.98
2019-04-01T01:48:19.968Z,78.60
2019-04-01T01:51:33.475Z,78.89
2019-04-01T01:54:46.969Z,79.21
2019-04-01T01:58:00.835Z,78.55
2019-04-01T02:01:14.321Z,78.05
2019-04-01T02:04:27.889Z,78.67
2019-04-01T02:07:41.632Z,79.11
2019-04-01T02:10:55.616Z,79.15
2019-04-01T02:14:09.368Z,79.50
2019-04-01T02:17:23.434Z,79.28
2019-04-01T02:20:36.904Z,79.54
2019-04-01T02:23:50.499Z,79.76
2019-04-01T02:27:04.461Z,80.45
2019-04-01T02:30:18.215Z,80.77
2019-04-01T02:33:31.706Z,80.51
2019-04-01T02:36:45.201Z,80.49
2019-04-01T02:39:59.028Z,80.17
2019-04-01T02:43:12.619Z,80.16
2019-04-01T02:46:26.199Z,80.73
2019-04-01T02:49:39.699Z,80.20
2019-04-01T02:52:53.308Z,80.58
2019-04-01T02:56:06.775Z,80.08
2019-04-01T02:59:20.269Z,80.19
2019-04-01T03:02:33.750Z,79.90
2019-04-01T03:05:47.258Z,79.98
2019-04-01T03:09:01.553Z,80.34
2019-04-01T03:12:15.029Z,80.78
2019-04-01T03:15:28.625Z,81.10
2019-04-01T03:18:42.100Z,80.91
2019-04-01T03:21:55.809Z,80.49
2019-04-01T03:25:09.589Z,80.72
2019-04-01T03:28:23.445Z,80.73
2019-04-01T03:31:37.026Z,80.58
2019-04-01T03:34:50.597Z,81.21
2019-04-01T03:38:04.193Z,81.16
2019-04-01T03:41:17.766Z,81.42
2019-04-01T03:44:31.343Z,81.12
2019-04-01T03:47:45.185Z,80.89
2019-04-01T03:50:58.684Z,81.06
2019-04-01T03:54:12.176Z,80.95
2019-04-01T03:57:25.650Z,82.16
2019-04-01T04:00:39.224Z,82.11
2019-04-01T04:03:52.801Z,82.08
2019-04-01T04:07:06.570Z,82.34
2019-04-01T04:10:20.167Z,82.46
2019-04-01T04:13:33.777Z,82.96
2019-04-01T04:16:47.518Z,82.24
2019-04-01T04:20:01.107Z,81.84
2019-04-01T04:23:14.568Z,81.72
2019-04-01T04:26:28.094Z,81.44
2019-04-01T04:29:41.559Z,81.18
2019-04-01T04:32:55.413Z,81.51
2019-04-01T04:36:08.888Z,81.08
2019-04-01T04:39:22.879Z,81.63
2019-04-01T04:42:36.353Z,82.30
2019-04-01T04:45:49.960Z,81.99
2019-04-01T04:49:03.504Z,81.96
2019-04-01T04:52:16.970Z,82.11
2019-04-01T04:55:30.447Z,82.13
2019-04-01T04:58:43.915Z,83.08
2019-04-01T05:01:57.521Z,82.96
2019-04-01T05:05:11.299Z,82.52
2019-04-01T05:08:25.059Z,82.40
2019-04-01T05:11:38.588Z,82.35
2019-04-01T05:14:52.437Z,82.41
2019-04-01T05:18:06.352Z,82.05
2019-04-01T05:21:20.544Z,81.67
2019-04-01T05:24:34.833Z,82.13
2019-04-01T05:27:48.712Z,82.05
2019-04-01T05:31:05.675Z,82.02
2019-04-01T05:34:20.950Z,82.66
2019-04-01T05:37:35.120Z,82.52
2019-04-01T05:40:48.800Z,82.87
2019-04-01T05:44:02.643Z,83.13
2019-04-01T05:47:18.359Z,82.88
2019-04-01T05:50:32.075Z,83.45
2019-04-01T05:53:45.770Z,83.33
2019-04-01T05:56:59.672Z,83.40
2019-04-01T06:00:21.001Z,83.03
2019-04-01T06:03:34.683Z,82.77
2019-04-01T06:06:49.098Z,82.17
2019-04-01T06:10:03.305Z,81.71
2019-04-01T06:13:17.163Z,81.40
2019-04-01T06:16:30.999Z,81.71
2019-04-01T06:19:44.980Z,81.70
2019-04-01T06:22:58.753Z,81.14
2019-04-01T06:26:12.344Z,80.58
2019-04-01T06:29:26.347Z,80.11
2019-04-01T06:32:39.920Z,79.52
2019-04-01T06:35:53.713Z,78.87
2019-04-01T06:39:07.529Z,78.49
2019-04-01T06:42:21.421Z,77.83
2019-04-01T06:45:35.261Z,77.91
2019-04-01T06:48:48.840Z,76.96
2019-04-01T06:52:02.918Z,76.90
2019-04-01T06:55:16.856Z,75.71
2019-04-01T06:58:30.655Z,75.49
2019-04-01T07:01:44.367Z,74.70
2019-04-01T07:04:58.113Z,73.85
2019-04-01T07:08:11.935Z,73.92
2019-04-01T07:11:25.601Z,73.64
2019-04-01T07:14:39.880Z,72.46
2019-04-01T07:17:53.861Z,72.31
2019-04-01T07:21:10.143Z,71.88
2019-04-01T07:24:23.720Z,71.81
2019-04-01T07:27:38.103Z,71.00
2019-04-01T07:30:51.793Z,70.71
2019-04-01T07:34:05.655Z,70.65
2019-04-01T07:37:19.244Z,70.08
2019-04-01T07:40:33.535Z,69.45
2019-04-01T07:43:47.512Z,69.12
2019-04-01T07:47:01.634Z,68.84
2019-04-01T07:50:15.285Z,68.73
2019-04-01T07:53:29.099Z,67.82
2019-04-01T07:56:42.578Z,67.92
2019-04-01T07:59:56.969Z,66.34
2019-04-01T08:03:10.976Z,67.23
2019-04-01T08:06:24.851Z,67.16
2019-04-01T08:09:39.024Z,66.17
2019-04-01T08:12:52.603Z,65.95
2019-04-01T08:16:06.280Z,65.86
2019-04-01T08:19:19.981Z,64.61
2019-04-01T08:22:33.659Z,64.90
2019-04-01T08:25:48.115Z,64.12
2019-04-01T08:29:01.895Z,62.62
2019-04-01T08:32:15.590Z,63.21
2019-04-01T08:35:29.503Z,63.05
2019-04-01T08:38:43.203Z,62.05
2019-04-01T08:41:56.804Z,60.24
2019-04-01T08:45:10.671Z,59.62
2019-04-01T08:48:25.035Z,59.73
2019-04-01T08:51:38.951Z,60.02
2019-04-01T08:54:52.545Z,59.27
2019-04-01T08:58:06.411Z,59.05
2019-04-01T09:01:34.161Z,59.35
2019-04-01T09:04:35.377Z,58.00
2019-04-01T09:07:49.456Z,57.37
2019-04-01T09:11:03.133Z,56.72
2019-04-01T09:14:17.223Z,55.42
2019-04-01T09:17:30.736Z,55.44
2019-04-01T09:20:44.311Z,55.51
2019-04-01T09:23:57.923Z,54.14
2019-04-01T09:27:11.703Z,54.56
2019-04-01T09:30:25.434Z,54.77
2019-04-01T09:33:39.333Z,54.04
2019-04-01T09:36:52.921Z,53.65
2019-04-01T09:40:07.026Z,52.96
2019-04-01T09:43:21.065Z,52.05
2019-04-01T09:46:34.739Z,51.57
2019-04-01T09:49:48.220Z,50.75
2019-04-01T09:53:01.806Z,50.26
2019-04-01T09:56:15.270Z,49.61
2019-04-01T09:59:28.752Z,50.05
2019-04-01T10:02:42.660Z,48.63
2019-04-01T10:05:56.496Z,48.96
2019-04-01T10:09:10.198Z,48.45
2019-04-01T10:12:23.895Z,47.43
2019-04-01T10:15:37.389Z,46.65
2019-04-01T10:18:50.979Z,46.59
2019-04-01T10:22:04.900Z,46.79
2019-04-01T10:25:18.488Z,47.37
2019-04-01T10:28:32.491Z,45.54
2019-04-01T10:31:46.476Z,45.39
2019-04-01T10:35:00.407Z,44.94
2019-04-01T10:38:14.284Z,44.88
2019-04-01T10:41:28.008Z,45.29
2019-04-01T10:44:41.847Z,43.84
2019-04-01T10:47:55.354Z,42.96
2019-04-01T10:51:09.095Z,42.70
2019-04-01T10:54:23.017Z,42.77
2019-04-01T10:57:36.825Z,43.58
2019-04-01T11:00:50.728Z,41.83
2019-04-01T11:04:06.200Z,42.02
2019-04-01T11:07:22.985Z,42.58
2019-04-01T11:10:37.726Z,40.70
2019-04-01T11:13:54.380Z,41.87
2019-04-01T11:17:10.561Z,39.63
2019-04-01T11:20:25.984Z,39.70
2019-04-01T11:23:39.666Z,39.29
2019-04-01T11:26:53.481Z,38.18
2019-04-01T11:30:08.482Z,39.56
2019-04-01T11:33:22.086Z,38.69
2019-04-01T11:36:35.764Z,38.29
2019-04-01T11:39:49.307Z,38.45
2019-04-01T11:43:04.922Z,38.01
2019-04-01T11:46:18.346Z,39.23
2019-04-01T11:49:32.087Z,37.90
2019-04-01T11:52:45.822Z,36.87
2019-04-01T11:55:59.535Z,36.32
2019-04-01T11:59:13.028Z,35.78
2019-04-01T12:02:26.609Z,35.92
2019-04-01T12:05:40.502Z,34.07
2019-04-01T12:08:53.998Z,36.10
2019-04-01T12:12:22.332Z,36.35
2019-04-01T12:15:23.094Z,34.80
2019-04-01T12:18:36.697Z,34.79
2019-04-01T12:21:50.300Z,35.29
2019-04-01T12:25:04.804Z,35.79
2019-04-01T12:28:18.900Z,35.86
2019-04-01T12:31:32.623Z,35.57
2019-04-01T12:34:46.809Z,34.39
2019-04-01T12:38:00.764Z,34.03
2019-04-01T12:41:15.113Z,34.33
2019-04-01T12:44:28.916Z,33.02
2019-04-01T12:47:43.402Z,32.30
2019-04-01T12:50:57.975Z,33.01
2019-04-01T12:54:12.063Z,33.31
2019-04-01T12:57:26.016Z,33.33
2019-04-01T13:00:39.526Z,34.40
2019-04-01T13:03:53.014Z,34.13
2019-04-01T13:07:06.618Z,33.31
2019-04-01T13:10:20.565Z,33.06
2019-04-01T13:13:34.096Z,34.49
2019-04-01T13:16:47.974Z,33.29
2019-04-01T13:20:01.667Z,33.77
2019-04-01T13:23:15.193Z,33.30
2019-04-01T13:26:28.732Z,33.50
2019-04-01T13:29:42.458Z,33.28
2019-04-01T13:32:56.125Z,33.51
2019-04-01T13:36:09.936Z,35.18
2019-04-01T13:39:23.925Z,32.31
2019-04-01T13:42:37.604Z,30.99
2019-04-01T13:45:51.270Z,30.81
2019-04-01T13:49:05.051Z,30.22
2019-04-01T13:52:19.139Z,31.73
2019-04-01T13:55:33.046Z,31.33
2019-04-01T13:58:46.880Z,31.76
2019-04-01T14:02:00.696Z,32.06
2019-04-01T14:05:14.639Z,32.43
2019-04-01T14:08:28.621Z,31.81
2019-04-01T14:11:42.669Z,32.53
2019-04-01T14:14:56.415Z,32.62
2019-04-01T14:18:10.020Z,31.74
2019-04-01T14:21:23.753Z,32.02
2019-04-01T14:24:37.525Z,31.64
2019-04-01T14:27:51.147Z,31.39
2019-04-01T14:31:05.234Z,30.50
2019-04-01T14:34:23.216Z,30.80
2019-04-01T14:37:35.147Z,30.54
2019-04-01T14:40:49.049Z,30.26
2019-04-01T14:44:03.000Z,30.51
2019-04-01T14:47:16.586Z,32.07
2019-04-01T14:50:30.457Z,31.75
2019-04-01T14:53:43.946Z,32.14
2019-04-01T14:56:57.555Z,31.78
2019-04-01T15:00:12.544Z,31.23
2019-04-01T15:03:26.029Z,31.35
2019-04-01T15:06:39.514Z,32.76
2019-04-01T15:09:53.102Z,31.41
2019-04-01T15:13:06.745Z,31.11
2019-04-01T15:16:20.342Z,31.62
2019-04-01T15:19:33.940Z,31.18
2019-04-01T15:22:47.456Z,31.86
2019-04-01T15:26:01.226Z,33.36
2019-04-01T15:29:15.254Z,33.11
2019-04-01T15:32:28.992Z,30.95
2019-04-01T15:35:42.726Z,31.44
2019-04-01T15:38:56.526Z,31.01
2019-04-01T15:42:10.299Z,31.59
2019-04-01T15:45:24.347Z,32.02
2019-04-01T15:48:38.070Z,33.20
2019-04-01T15:51:51.605Z,32.67
2019-04-01T15:55:05.351Z,33.38
2019-04-01T15:58:18.844Z,34.00
2019-04-01T16:01:32.464Z,33.28
2019-04-01T16:04:46.511Z,33.52
2019-04-01T16:08:00.275Z,32.72
2019-04-01T16:11:13.912Z,32.77
2019-04-01T16:14:27.808Z,33.04
2019-04-01T16:17:41.520Z,33.59
2019-04-01T16:20:55.543Z,34.22
2019-04-01T16:24:11.274Z,34.11
2019-04-01T16:27:24.907Z,34.67
2019-04-01T16:30:38.538Z,34.42
2019-04-01T16:33:52.560Z,35.03
2019-04-01T16:37:06.247Z,35.35
2019-04-01T16:40:20.234Z,35.47
2019-04-01T16:43:33.979Z,35.05
2019-04-01T16:46:47.718Z,35.76
2019-04-01T16:50:01.674Z,36.18
2019-04-01T16:53:15.415Z,35.80
2019-04-01T16:56:29.189Z,36.14
2019-04-01T16:59:42.819Z,36.93
2019-04-01T17:02:57.021Z,36.88
2019-04-01T17:06:10.816Z,37.04
2019-04-01T17:09:24.335Z,38.07
2019-04-01T17:12:37.944Z,37.93
2019-04-01T17:15:51.539Z,38.36
2019-04-01T17:19:05.178Z,39.83
2019-04-01T17:22:19.209Z,39.74
2019-04-01T17:25:32.977Z,39.35
2019-04-01T17:28:47.020Z,40.79
2019-04-01T17:32:00.624Z,41.04
2019-04-01T17:35:14.529Z,41.28
2019-04-01T17:38:28.276Z,42.13
2019-04-01T17:41:46.114Z,42.44
2019-04-01T17:45:02.700Z,43.26
2019-04-01T17:48:16.712Z,43.81
2019-04-01T17:51:31.047Z,43.93
2019-04-01T17:54:44.630Z,45.52
2019-04-01T17:57:58.335Z,46.51
2019-04-01T18:01:12.168Z,47.38
2019-04-01T18:04:26.036Z,47.99
2019-04-01T18:07:39.535Z,48.68
2019-04-01T18:10:53.125Z,49.16
2019-04-01T18:14:06.613Z,49.81
2019-04-01T18:17:20.481Z,51.14
2019-04-01T18:20:34.453Z,51.58
2019-04-01T18:23:48.039Z,52.33
2019-04-01T18:27:01.523Z,53.08
2019-04-01T18:30:15.840Z,53.40
2019-04-01T18:33:30.298Z,53.91
2019-04-01T18:36:44.142Z,54.34
2019-04-01T18:39:57.614Z,54.72
2019-04-01T18:43:11.123Z,55.27
2019-04-01T18:46:24.616Z,56.61
2019-04-01T18:49:38.085Z,57.29
2019-04-01T18:52:51.570Z,58.39
2019-04-01T18:56:05.472Z,58.58
2019-04-01T18:59:19.044Z,59.04
2019-04-01T19:02:32.539Z,59.30
2019-04-01T19:05:47.075Z,59.30
2019-04-01T19:09:09.205Z,59.30
2019-04-01T19:12:16.461Z,59.40
2019-04-01T19:15:31.180Z,60.46
2019-04-01T19:18:44.974Z,60.32
2019-04-01T19:21:58.769Z,61.04
2019-04-01T19:25:12.474Z,61.89
2019-04-01T19:28:26.231Z,62.71
2019-04-01T19:31:41.170Z,62.89
2019-04-01T19:34:55.005Z,63.44
2019-04-01T19:38:08.609Z,63.79
2019-04-01T19:41:22.109Z,65.09
2019-04-01T19:44:35.681Z,66.17
2019-04-01T19:47:49.164Z,66.16
2019-04-01T19:51:02.951Z,66.24
2019-04-01T19:54:16.426Z,66.77
2019-04-01T19:57:30.028Z,67.14
2019-04-01T20:00:43.519Z,67.75
2019-04-01T20:03:57.079Z,67.64
2019-04-01T20:07:10.784Z,68.01
2019-04-01T20:13:54.737Z,69.57
2019-04-01T20:17:07.192Z,69.64
2019-04-01T20:20:20.762Z,69.58
2019-04-01T20:23:34.240Z,69.20
2019-04-01T20:26:47.758Z,69.71
2019-04-01T20:30:01.396Z,70.63
2019-04-01T20:33:18.087Z,71.37
2019-04-01T20:36:31.416Z,71.14
2019-04-01T20:39:45.455Z,71.03
2019-04-01T20:42:59.451Z,71.12
2019-04-01T20:46:13.343Z,71.52
2019-04-01T20:49:26.829Z,72.01
2019-04-01T20:52:40.804Z,72.84
2019-04-01T20:55:54.311Z,72.89
2019-04-01T20:59:07.808Z,73.01
2019-04-01T21:02:21.520Z,73.26
2019-04-01T21:05:35.007Z,73.03
2019-04-01T21:08:48.491Z,73.05
2019-04-01T21:12:03.135Z,73.23
2019-04-01T21:15:16.880Z,74.00
2019-04-01T21:18:30.387Z,74.41
2019-04-01T21:21:43.884Z,74.94
2019-04-01T21:24:57.360Z,75.63
2019-04-01T21:28:10.839Z,75.73
2019-04-01T21:31:24.575Z,75.50
2019-04-01T21:34:38.066Z,75.96
2019-04-01T21:37:51.597Z,75.66
2019-04-01T21:41:05.183Z,75.38
2019-04-01T21:44:18.680Z,75.37
2019-04-01T21:47:32.557Z,75.67
2019-04-01T21:50:46.390Z,76.06
2019-04-01T21:54:00.301Z,76.42
2019-04-01T21:57:13.973Z,76.72
2019-04-01T22:00:38.726Z,76.99
2019-04-01T22:03:52.216Z,76.54
2019-04-01T22:07:05.695Z,76.78
2019-04-01T22:10:19.182Z,77.19
2019-04-01T22:13:32.936Z,77.44
2019-04-01T22:16:48.032Z,77.57
2019-04-01T22:20:02.315Z,77.08
2019-04-01T22:23:16.249Z,76.82
2019-04-01T22:26:29.832Z,76.67
2019-04-01T22:29:43.423Z,76.54
2019-04-01T22:32:57.260Z,76.54
2019-04-01T22:36:11.419Z,76.51
2019-04-01T22:39:27.194Z,76.63
2019-04-01T22:42:41.215Z,76.63
2019-04-01T22:45:54.975Z,76.92
2019-04-01T22:49:08.456Z,77.19
2019-04-01T22:52:21.944Z,77.69
2019-04-01T22:55:35.541Z,77.68
2019-04-01T22:58:49.023Z,78.12
2019-04-01T23:02:02.605Z,78.28
2019-04-01T23:05:16.434Z,78.21
2019-04-01T23:08:31.057Z,78.60
2019-04-01T23:11:44.718Z,78.79
2019-04-01T23:14:58.206Z,78.92
2019-04-01T23:18:11.706Z,78.72
2019-04-01T23:21:25.584Z,78.63
2019-04-01T23:24:39.072Z,78.60
2019-04-01T23:27:52.556Z,78.49
2019-04-01T23:31:06.043Z,78.58
2019-04-01T23:34:19.535Z,78.17
2019-04-01T23:37:33.114Z,78.87
2019-04-01T23:40:46.607Z,78.91
2019-04-01T23:44:00.103Z,78.87
2019-04-01T23:47:13.674Z,79.28
2019-04-01T23:50:27.159Z,79.90
2019-04-01T23:53:40.626Z,79.55
2019-04-01T23:56:54.215Z,79.57
